createdAt,value
2022-09-23T00:00:20.703Z,8.88
2022-09-23T00:01:20.727Z,8.86
2022-09-23T00:02:20.686Z,8.86
2022-09-23T00:03:20.652Z,8.85
2022-09-23T00:04:20.639Z,8.88
2022-09-23T00:05:20.638Z,8.88
2022-09-23T00:06:20.629Z,8.88
2022-09-23T00:07:20.630Z,8.85
2022-09-23T00:08:20.589Z,8.80
2022-09-23T00:09:20.577Z,8.79
2022-09-23T00:10:20.583Z,8.78
2022-09-23T00:11:20.551Z,8.79
2022-09-23T00:12:20.535Z,8.79
2022-09-23T00:13:21.486Z,8.75
2022-09-23T00:14:20.510Z,8.73
2022-09-23T00:15:20.506Z,8.75
2022-09-23T00:16:20.537Z,8.80
2022-09-23T00:17:20.478Z,8.79
2022-09-23T00:18:20.457Z,8.78
2022-09-23T00:19:20.444Z,8.75
2022-09-23T00:20:20.435Z,8.73
2022-09-23T00:21:20.423Z,8.75
2022-09-23T00:22:20.408Z,8.76
2022-09-23T00:23:20.388Z,8.76
2022-09-23T00:24:20.395Z,8.76
2022-09-23T00:25:20.365Z,8.70
2022-09-23T00:26:20.457Z,8.67
2022-09-23T00:27:20.335Z,8.65
2022-09-23T00:28:20.315Z,8.61
2022-09-23T00:29:20.317Z,8.57
2022-09-23T00:30:20.298Z,8.60
2022-09-23T00:31:20.438Z,8.60
2022-09-23T00:32:20.280Z,8.57
2022-09-23T00:33:20.263Z,8.55
2022-09-23T00:34:20.257Z,8.57
2022-09-23T00:35:20.250Z,8.55
2022-09-23T00:36:20.222Z,8.55
2022-09-23T00:37:20.204Z,8.54
2022-09-23T00:38:20.191Z,8.54
2022-09-23T00:39:20.182Z,8.52
2022-09-23T00:40:20.216Z,8.52
2022-09-23T00:41:20.161Z,8.54
2022-09-23T00:42:20.139Z,8.54
2022-09-23T00:43:20.131Z,8.52
2022-09-23T00:44:20.133Z,8.49
2022-09-23T00:45:20.112Z,8.50
2022-09-23T00:46:20.182Z,8.50
2022-09-23T00:47:20.079Z,8.49
2022-09-23T00:48:20.062Z,8.47
2022-09-23T00:49:20.050Z,8.46
2022-09-23T00:50:20.040Z,8.45
2022-09-23T00:51:20.049Z,8.46
2022-09-23T00:52:20.014Z,8.46
2022-09-23T00:53:20.007Z,8.46
2022-09-23T00:54:20.026Z,8.46
2022-09-23T00:55:19.968Z,8.49
2022-09-23T00:56:19.958Z,8.47
2022-09-23T00:57:19.962Z,8.46
2022-09-23T00:58:19.968Z,8.46
2022-09-23T00:59:19.989Z,8.46
2022-09-23T01:00:19.986Z,8.45
2022-09-23T01:01:20.062Z,8.45
2022-09-23T01:02:20.030Z,8.43
2022-09-23T01:03:19.866Z,8.43
2022-09-23T01:04:19.868Z,8.40
2022-09-23T01:05:19.840Z,8.42
2022-09-23T01:06:19.829Z,8.43
2022-09-23T01:07:19.873Z,8.40
2022-09-23T01:08:19.802Z,8.42
2022-09-23T01:09:19.789Z,8.39
2022-09-23T01:10:19.764Z,8.36
2022-09-23T01:11:19.765Z,8.36
2022-09-23T01:12:19.752Z,8.36
2022-09-23T01:13:20.619Z,8.36
2022-09-23T01:14:19.735Z,8.34
2022-09-23T01:15:19.714Z,8.34
2022-09-23T01:16:19.776Z,8.34
2022-09-23T01:17:19.701Z,8.36
2022-09-23T01:18:19.673Z,8.34
2022-09-23T01:19:19.672Z,8.32
2022-09-23T01:20:19.649Z,8.34
2022-09-23T01:21:19.642Z,8.34
2022-09-23T01:22:19.636Z,8.32
2022-09-23T01:23:19.610Z,8.32
2022-09-23T01:24:19.591Z,8.32
2022-09-23T01:25:19.582Z,8.31
2022-09-23T01:26:19.591Z,8.31
2022-09-23T01:27:19.560Z,8.29
2022-09-23T01:28:19.541Z,8.28
2022-09-23T01:29:19.538Z,8.29
2022-09-23T01:30:19.511Z,8.28
2022-09-23T01:31:19.589Z,8.22
2022-09-23T01:32:19.498Z,8.21
2022-09-23T01:33:19.469Z,8.20
2022-09-23T01:34:19.480Z,8.20
2022-09-23T01:35:19.448Z,8.20
2022-09-23T01:36:19.438Z,8.24
2022-09-23T01:37:19.429Z,8.22
2022-09-23T01:38:19.423Z,8.22
2022-09-23T01:39:19.405Z,8.25
2022-09-23T01:40:19.422Z,8.22
2022-09-23T01:41:19.388Z,8.21
2022-09-23T01:42:19.357Z,8.18
2022-09-23T01:43:19.346Z,8.13
2022-09-23T01:44:19.344Z,8.14
2022-09-23T01:45:19.328Z,8.12
2022-09-23T01:46:19.317Z,8.17
2022-09-23T01:47:19.295Z,8.18
2022-09-23T01:48:19.875Z,8.20
2022-09-23T01:49:19.278Z,8.20
2022-09-23T01:50:19.263Z,8.20
2022-09-23T01:51:19.258Z,8.17
2022-09-23T01:52:19.244Z,8.14
2022-09-23T01:53:19.223Z,8.13
2022-09-23T01:54:19.216Z,8.13
2022-09-23T01:55:19.209Z,8.10
2022-09-23T01:56:19.223Z,8.10
2022-09-23T01:57:19.194Z,8.12
2022-09-23T01:58:19.165Z,8.12
2022-09-23T01:59:19.168Z,8.12
2022-09-23T02:00:19.138Z,8.10
2022-09-23T02:01:19.200Z,8.09
2022-09-23T02:02:19.170Z,8.09
2022-09-23T02:03:19.118Z,8.07
2022-09-23T02:04:19.095Z,8.07
2022-09-23T02:05:19.149Z,8.07
2022-09-23T02:06:19.072Z,8.09
2022-09-23T02:07:19.056Z,8.12
2022-09-23T02:08:19.071Z,8.09
2022-09-23T02:09:19.050Z,8.10
2022-09-23T02:10:19.116Z,8.09
2022-09-23T02:11:19.029Z,8.09
2022-09-23T02:12:18.990Z,8.09
2022-09-23T02:13:18.980Z,8.09
2022-09-23T02:14:18.972Z,8.09
2022-09-23T02:15:18.960Z,8.04
2022-09-23T02:16:19.018Z,8.04
2022-09-23T02:17:18.935Z,8.04
2022-09-23T02:18:18.947Z,8.04
2022-09-23T02:19:18.914Z,8.03
2022-09-23T02:20:18.891Z,8.02
2022-09-23T02:21:18.896Z,8.00
2022-09-23T02:22:18.859Z,7.95
2022-09-23T02:23:18.857Z,7.95
2022-09-23T02:24:18.859Z,7.95
2022-09-23T02:25:18.827Z,7.91
2022-09-23T02:26:18.817Z,7.88
2022-09-23T02:27:18.797Z,7.85
2022-09-23T02:28:18.794Z,7.82
2022-09-23T02:29:18.769Z,7.81
2022-09-23T02:30:18.766Z,7.82
2022-09-23T02:31:18.769Z,7.82
2022-09-23T02:32:18.735Z,7.82
2022-09-23T02:33:18.727Z,7.82
2022-09-23T02:34:18.804Z,7.86
2022-09-23T02:35:18.697Z,7.88
2022-09-23T02:36:18.696Z,7.89
2022-09-23T02:37:18.712Z,7.89
2022-09-23T02:38:18.665Z,7.86
2022-09-23T02:39:18.658Z,7.85
2022-09-23T02:40:18.685Z,7.84
2022-09-23T02:41:18.696Z,7.81
2022-09-23T02:42:18.617Z,7.81
2022-09-23T02:43:18.605Z,7.79
2022-09-23T02:44:18.601Z,7.79
2022-09-23T02:45:18.583Z,7.79
2022-09-23T02:46:18.630Z,7.81
2022-09-23T02:47:18.555Z,7.79
2022-09-23T02:48:18.537Z,7.79
2022-09-23T02:49:18.533Z,7.77
2022-09-23T02:50:18.513Z,7.79
2022-09-23T02:51:18.525Z,7.77
2022-09-23T02:52:18.492Z,7.74
2022-09-23T02:53:18.490Z,7.74
2022-09-23T02:54:18.484Z,7.73
2022-09-23T02:55:18.471Z,7.73
2022-09-23T02:56:18.457Z,7.67
2022-09-23T02:57:18.420Z,7.67
2022-09-23T02:58:18.419Z,7.66
2022-09-23T02:59:18.398Z,7.69
2022-09-23T03:00:18.390Z,7.73
2022-09-23T03:01:18.437Z,7.74
2022-09-23T03:02:18.417Z,7.73
2022-09-23T03:03:18.352Z,7.73
2022-09-23T03:04:18.361Z,7.73
2022-09-23T03:05:18.331Z,7.71
2022-09-23T03:06:18.329Z,7.70
2022-09-23T03:07:18.310Z,7.69
2022-09-23T03:08:18.437Z,7.71
2022-09-23T03:09:18.286Z,7.73
2022-09-23T03:10:18.275Z,7.71
2022-09-23T03:11:18.269Z,7.70
2022-09-23T03:12:18.263Z,7.67
2022-09-23T03:13:18.274Z,7.67
2022-09-23T03:14:18.305Z,7.67
2022-09-23T03:15:18.241Z,7.63
2022-09-23T03:16:18.248Z,7.63
2022-09-23T03:17:18.192Z,7.62
2022-09-23T03:18:18.181Z,7.62
2022-09-23T03:19:18.162Z,7.60
2022-09-23T03:20:18.145Z,7.60
2022-09-23T03:21:18.134Z,7.60
2022-09-23T03:22:18.126Z,7.62
2022-09-23T03:23:18.103Z,7.62
2022-09-23T03:24:18.101Z,7.62
2022-09-23T03:25:18.090Z,7.58
2022-09-23T03:26:18.066Z,7.58
2022-09-23T03:27:18.061Z,7.54
2022-09-23T03:28:18.051Z,7.52
2022-09-23T03:29:18.032Z,7.50
2022-09-23T03:30:18.044Z,7.47
2022-09-23T03:31:18.073Z,7.47
2022-09-23T03:32:17.990Z,7.50
2022-09-23T03:33:17.980Z,7.54
2022-09-23T03:34:17.978Z,7.55
2022-09-23T03:35:17.963Z,7.55
2022-09-23T03:36:17.932Z,7.57
2022-09-23T03:37:17.941Z,7.54
2022-09-23T03:38:17.921Z,7.52
2022-09-23T03:39:17.907Z,7.50
2022-09-23T03:40:17.942Z,7.48
2022-09-23T03:41:17.890Z,7.44
2022-09-23T03:42:17.868Z,7.45
2022-09-23T03:43:17.860Z,7.45
2022-09-23T03:44:17.849Z,7.42
2022-09-23T03:45:17.848Z,7.44
2022-09-23T03:46:17.875Z,7.47
2022-09-23T03:47:17.807Z,7.45
2022-09-23T03:48:17.815Z,7.45
2022-09-23T03:49:17.781Z,7.47
2022-09-23T03:50:17.807Z,7.47
2022-09-23T03:51:17.756Z,7.47
2022-09-23T03:52:17.748Z,7.47
2022-09-23T03:53:17.730Z,7.45
2022-09-23T03:54:17.725Z,7.44
2022-09-23T03:55:17.709Z,7.42
2022-09-23T03:56:17.704Z,7.42
2022-09-23T03:57:17.685Z,7.42
2022-09-23T03:58:17.686Z,7.44
2022-09-23T03:59:17.656Z,7.47
2022-09-23T04:00:17.651Z,7.45
2022-09-23T04:01:17.728Z,7.47
2022-09-23T04:02:17.699Z,7.44
2022-09-23T04:03:17.621Z,7.47
2022-09-23T04:04:17.602Z,7.50
2022-09-23T04:05:17.594Z,7.51
2022-09-23T04:06:17.574Z,7.50
2022-09-23T04:07:17.578Z,7.50
2022-09-23T04:08:17.548Z,7.47
2022-09-23T04:09:17.529Z,7.45
2022-09-23T04:10:17.512Z,7.47
2022-09-23T04:11:17.505Z,7.42
2022-09-23T04:12:17.500Z,7.42
2022-09-23T04:13:17.484Z,7.42
2022-09-23T04:14:17.479Z,7.41
2022-09-23T04:15:17.463Z,7.39
2022-09-23T04:16:17.499Z,7.37
2022-09-23T04:17:17.427Z,7.37
2022-09-23T04:18:17.423Z,7.33
2022-09-23T04:19:17.401Z,7.32
2022-09-23T04:20:17.392Z,7.29
2022-09-23T04:21:17.424Z,7.27
2022-09-23T04:22:17.401Z,7.27
2022-09-23T04:23:17.350Z,7.26
2022-09-23T04:24:17.372Z,7.23
2022-09-23T04:25:17.318Z,7.23
2022-09-23T04:26:17.309Z,7.23
2022-09-23T04:27:17.300Z,7.24
2022-09-23T04:28:17.289Z,7.26
2022-09-23T04:29:17.270Z,7.24
2022-09-23T04:30:17.278Z,7.24
2022-09-23T04:31:17.334Z,7.27
2022-09-23T04:32:17.256Z,7.26
2022-09-23T04:33:17.244Z,7.26
2022-09-23T04:34:17.211Z,7.27
2022-09-23T04:35:17.197Z,7.29
2022-09-23T04:36:17.180Z,7.24
2022-09-23T04:37:17.165Z,7.23
2022-09-23T04:38:17.178Z,7.21
2022-09-23T04:39:17.144Z,7.16
2022-09-23T04:40:17.248Z,7.15
2022-09-23T04:41:17.117Z,7.16
2022-09-23T04:42:17.116Z,7.15
2022-09-23T04:43:17.097Z,7.16
2022-09-23T04:44:17.097Z,7.16
2022-09-23T04:45:17.077Z,7.16
2022-09-23T04:46:17.171Z,7.15
2022-09-23T04:47:17.048Z,7.18
2022-09-23T04:48:17.046Z,7.18
2022-09-23T04:49:17.019Z,7.19
2022-09-23T04:50:17.015Z,7.19
2022-09-23T04:51:17.046Z,7.21
2022-09-23T04:52:16.993Z,7.23
2022-09-23T04:53:16.969Z,7.24
2022-09-23T04:54:16.957Z,7.30
2022-09-23T04:55:16.965Z,7.32
2022-09-23T04:56:16.922Z,7.29
2022-09-23T04:57:17.224Z,7.26
2022-09-23T04:58:16.930Z,7.24
2022-09-23T04:59:16.903Z,7.26
2022-09-23T05:01:12.487Z,7.24
2022-09-23T05:02:12.626Z,7.24
2022-09-23T05:03:12.470Z,7.23
2022-09-23T05:04:12.508Z,7.26
2022-09-23T05:05:12.416Z,7.23
2022-09-23T05:06:12.398Z,7.19
2022-09-23T05:07:12.398Z,7.18
2022-09-23T05:08:12.397Z,7.15
2022-09-23T05:09:12.345Z,7.14
2022-09-23T05:10:12.508Z,7.14
2022-09-23T05:11:12.332Z,7.09
2022-09-23T05:12:12.330Z,7.11
2022-09-23T05:13:12.359Z,7.14
2022-09-23T05:14:12.298Z,7.15
2022-09-23T05:15:12.366Z,7.16
2022-09-23T05:16:12.380Z,7.19
2022-09-23T05:17:12.275Z,7.21
2022-09-23T05:18:12.236Z,7.21
2022-09-23T05:19:12.243Z,7.24
2022-09-23T05:20:12.238Z,7.23
2022-09-23T05:21:12.227Z,7.19
2022-09-23T05:22:12.214Z,7.23
2022-09-23T05:23:12.183Z,7.21
2022-09-23T05:24:12.182Z,7.24
2022-09-23T05:25:12.165Z,7.23
2022-09-23T05:26:12.203Z,7.21
2022-09-23T05:27:12.165Z,7.21
2022-09-23T05:28:12.109Z,7.24
2022-09-23T05:29:12.092Z,7.26
2022-09-23T05:30:12.087Z,7.26
2022-09-23T05:31:14.724Z,7.26
2022-09-23T05:32:13.119Z,7.29
2022-09-23T05:33:12.079Z,7.27
2022-09-23T05:34:12.056Z,7.29
2022-09-23T05:35:12.071Z,7.29
2022-09-23T05:36:12.010Z,7.29
2022-09-23T05:37:12.051Z,7.32
2022-09-23T05:38:12.103Z,7.34
2022-09-23T05:39:12.011Z,7.37
2022-09-23T05:40:12.007Z,7.41
2022-09-23T05:41:11.980Z,7.41
2022-09-23T05:42:11.961Z,7.42
2022-09-23T05:43:12.022Z,7.44
2022-09-23T05:44:11.931Z,7.45
2022-09-23T05:45:12.145Z,7.50
2022-09-23T05:46:11.935Z,7.52
2022-09-23T05:47:11.969Z,7.54
2022-09-23T05:48:11.879Z,7.57
2022-09-23T05:49:11.918Z,7.58
2022-09-23T05:50:12.168Z,7.60
2022-09-23T05:51:11.849Z,7.63
2022-09-23T05:52:11.858Z,7.67
2022-09-23T05:53:11.825Z,7.71
2022-09-23T05:54:11.817Z,7.73
2022-09-23T05:55:11.809Z,7.74
2022-09-23T05:56:11.898Z,7.79
2022-09-23T05:57:11.751Z,7.82
2022-09-23T05:58:11.766Z,7.84
2022-09-23T05:59:11.765Z,7.88
2022-09-23T06:00:11.717Z,7.92
2022-09-23T06:01:11.719Z,7.92
2022-09-23T06:02:11.776Z,7.99
2022-09-23T06:03:11.801Z,7.99
2022-09-23T06:04:11.719Z,8.02
2022-09-23T06:05:11.669Z,8.04
2022-09-23T06:06:11.683Z,8.09
2022-09-23T06:07:11.770Z,8.10
2022-09-23T06:08:11.855Z,8.14
2022-09-23T06:09:11.689Z,8.20
2022-09-23T06:10:11.643Z,8.22
2022-09-23T06:11:11.653Z,8.31
2022-09-23T06:12:11.699Z,8.45
2022-09-23T06:13:11.627Z,8.61
2022-09-23T06:14:11.646Z,8.64
2022-09-23T06:15:12.019Z,8.64
2022-09-23T06:16:11.681Z,8.67
2022-09-23T06:17:11.550Z,8.73
2022-09-23T06:18:11.507Z,8.76
2022-09-23T06:19:12.097Z,8.82
2022-09-23T06:20:11.732Z,8.89
2022-09-23T06:21:11.811Z,9.01
2022-09-23T06:22:11.482Z,9.04
2022-09-23T06:23:11.435Z,9.08
2022-09-23T06:24:15.897Z,9.08
2022-09-23T06:25:12.441Z,9.08
2022-09-23T06:26:11.411Z,9.12
2022-09-23T06:27:11.384Z,9.12
2022-09-23T06:28:11.417Z,9.20
2022-09-23T06:29:11.473Z,9.31
2022-09-23T06:30:12.269Z,9.32
2022-09-23T06:31:13.591Z,9.34
2022-09-23T06:32:11.371Z,9.34
2022-09-23T06:33:11.347Z,9.27
2022-09-23T06:34:13.106Z,9.26
2022-09-23T06:35:23.906Z,9.22
2022-09-23T06:36:12.561Z,9.19
2022-09-23T06:37:19.188Z,9.17
2022-09-23T06:38:12.271Z,9.19
2022-09-23T06:39:11.546Z,9.17
2022-09-23T06:40:11.261Z,9.20
2022-09-23T06:41:11.256Z,9.22
2022-09-23T06:42:11.248Z,9.22
2022-09-23T06:43:11.222Z,9.23
2022-09-23T06:44:11.228Z,9.23
2022-09-23T06:45:11.185Z,9.24
2022-09-23T06:46:11.178Z,9.27
2022-09-23T06:47:11.149Z,9.30
2022-09-23T06:48:11.120Z,9.35
2022-09-23T06:49:11.195Z,9.38
2022-09-23T06:50:11.080Z,9.41
2022-09-23T06:51:11.074Z,9.42
2022-09-23T06:52:11.098Z,9.48
2022-09-23T06:53:11.061Z,9.45
2022-09-23T06:54:11.126Z,9.50
2022-09-23T06:55:11.019Z,9.52
2022-09-23T06:56:10.992Z,9.55
2022-09-23T06:57:11.042Z,9.59
2022-09-23T06:58:10.979Z,9.63
2022-09-23T06:59:10.988Z,9.67
2022-09-23T07:00:10.989Z,9.71
2022-09-23T07:01:11.048Z,9.75
2022-09-23T07:02:11.263Z,9.80
2022-09-23T07:03:10.939Z,9.85
2022-09-23T07:04:10.915Z,9.91
2022-09-23T07:05:10.895Z,9.92
2022-09-23T07:06:10.934Z,9.99
2022-09-23T07:07:10.876Z,10.04
2022-09-23T07:08:10.852Z,10.11
2022-09-23T07:09:10.831Z,10.16
2022-09-23T07:10:10.814Z,10.17
2022-09-23T07:11:10.794Z,10.22
2022-09-23T07:12:10.818Z,10.26
2022-09-23T07:13:15.536Z,10.34
2022-09-23T07:14:11.773Z,10.38
2022-09-23T07:15:11.092Z,10.44
2022-09-23T07:16:10.870Z,10.49
2022-09-23T07:17:10.734Z,10.55
2022-09-23T07:18:10.768Z,10.62
2022-09-23T07:19:10.729Z,10.66
2022-09-23T07:20:10.682Z,10.69
2022-09-23T07:21:10.694Z,10.72
2022-09-23T07:22:10.679Z,10.73
2022-09-23T07:23:10.655Z,10.81
2022-09-23T07:24:10.650Z,10.83
2022-09-23T07:25:10.675Z,10.87
2022-09-23T07:26:10.677Z,10.91
2022-09-23T07:27:10.647Z,10.94
2022-09-23T07:28:10.577Z,10.99
2022-09-23T07:29:10.614Z,11.03
2022-09-23T07:30:19.571Z,11.08
2022-09-23T07:31:11.617Z,11.08
2022-09-23T07:32:14.005Z,11.11
2022-09-23T07:33:26.319Z,11.12
2022-09-23T07:34:11.819Z,11.16
2022-09-23T07:35:10.620Z,11.20
2022-09-23T07:36:10.495Z,11.21
2022-09-23T07:37:10.497Z,11.27
2022-09-23T07:38:10.448Z,11.31
2022-09-23T07:39:10.474Z,11.36
2022-09-23T07:40:10.494Z,11.39
2022-09-23T07:41:10.476Z,11.42
2022-09-23T07:42:10.438Z,11.46
2022-09-23T07:43:10.416Z,11.49
2022-09-23T07:44:10.477Z,11.56
2022-09-23T07:45:10.412Z,11.60
2022-09-23T07:46:10.460Z,11.62
2022-09-23T07:47:10.387Z,11.64
2022-09-23T07:48:10.437Z,11.66
2022-09-23T07:49:10.323Z,11.74
2022-09-23T07:50:10.314Z,11.75
2022-09-23T07:51:10.328Z,11.79
2022-09-23T07:52:10.295Z,11.84
2022-09-23T07:53:10.316Z,11.94
2022-09-23T07:54:10.417Z,11.98
2022-09-23T07:55:10.383Z,12.03
2022-09-23T07:56:10.245Z,12.12
2022-09-23T07:57:10.345Z,12.13
2022-09-23T07:58:10.256Z,12.15
2022-09-23T07:59:10.235Z,12.19
2022-09-23T08:00:10.212Z,12.21
2022-09-23T08:01:10.247Z,12.22
2022-09-23T08:02:10.289Z,12.22
2022-09-23T08:03:10.222Z,12.25
2022-09-23T08:04:10.168Z,12.25
2022-09-23T08:05:10.113Z,12.26
2022-09-23T08:06:10.128Z,12.29
2022-09-23T08:07:10.156Z,12.33
2022-09-23T08:08:10.094Z,12.34
2022-09-23T08:09:10.133Z,12.36
2022-09-23T08:10:10.126Z,12.38
2022-09-23T08:11:10.066Z,12.38
2022-09-23T08:12:15.190Z,12.41
2022-09-23T08:13:11.076Z,12.46
2022-09-23T08:14:10.012Z,12.66
2022-09-23T08:15:10.142Z,12.80
2022-09-23T08:16:10.211Z,12.89
2022-09-23T08:17:09.988Z,12.88
2022-09-23T08:18:09.973Z,12.91
2022-09-23T08:19:09.999Z,12.95
2022-09-23T08:20:10.774Z,13.06
2022-09-23T08:21:09.956Z,13.13
2022-09-23T08:22:09.918Z,13.19
2022-09-23T08:23:09.911Z,13.22
2022-09-23T08:24:09.924Z,13.22
2022-09-23T08:25:10.349Z,13.17
2022-09-23T08:26:18.070Z,13.19
2022-09-23T08:27:10.839Z,13.22
2022-09-23T08:28:09.847Z,13.17
2022-09-23T08:29:09.876Z,13.19
2022-09-23T08:30:09.890Z,13.17
2022-09-23T08:31:09.890Z,13.19
2022-09-23T08:32:09.807Z,13.22
2022-09-23T08:33:09.831Z,13.28
2022-09-23T08:34:09.825Z,13.28
2022-09-23T08:35:09.852Z,13.28
2022-09-23T08:36:09.781Z,13.31
2022-09-23T08:37:09.695Z,13.32
2022-09-23T08:38:09.710Z,13.35
2022-09-23T08:39:09.761Z,13.38
2022-09-23T08:40:09.749Z,13.39
2022-09-23T08:41:09.858Z,13.39
2022-09-23T08:42:09.668Z,13.41
2022-09-23T08:43:09.653Z,13.39
2022-09-23T08:44:09.660Z,13.43
2022-09-23T08:45:09.662Z,13.43
2022-09-23T08:46:09.683Z,13.44
2022-09-23T08:47:09.593Z,13.46
2022-09-23T08:48:12.983Z,13.46
2022-09-23T08:49:09.588Z,13.47
2022-09-23T08:50:09.539Z,13.50
2022-09-23T08:51:09.611Z,13.53
2022-09-23T08:52:09.524Z,13.55
2022-09-23T08:53:09.512Z,13.61
2022-09-23T08:54:09.537Z,13.65
2022-09-23T08:55:10.614Z,13.69
2022-09-23T08:56:09.473Z,13.75
2022-09-23T08:57:09.507Z,13.81
2022-09-23T08:58:26.227Z,13.84
2022-09-23T08:59:10.429Z,13.83
2022-09-23T09:00:09.530Z,13.84
2022-09-23T09:01:09.532Z,13.84
2022-09-23T09:02:09.399Z,13.87
2022-09-23T09:03:09.367Z,13.90
2022-09-23T09:04:12.506Z,13.93
2022-09-23T09:05:09.340Z,13.94
2022-09-23T09:06:09.354Z,13.94
2022-09-23T09:07:34.751Z,13.96
2022-09-23T09:08:10.325Z,13.99
2022-09-23T09:09:09.318Z,13.99
2022-09-23T09:10:09.338Z,14.02
2022-09-23T09:11:09.293Z,14.05
2022-09-23T09:12:09.256Z,14.06
2022-09-23T09:13:09.250Z,14.13
2022-09-23T09:14:09.242Z,14.16
2022-09-23T09:15:09.508Z,14.16
2022-09-23T09:16:09.251Z,14.17
2022-09-23T09:17:09.182Z,14.19
2022-09-23T09:18:09.196Z,14.24
2022-09-23T09:19:09.158Z,14.30
2022-09-23T09:20:09.149Z,14.35
2022-09-23T09:21:09.139Z,14.38
2022-09-23T09:22:09.114Z,14.44
2022-09-23T09:23:09.212Z,14.49
2022-09-23T09:24:10.206Z,14.49
2022-09-23T09:25:09.089Z,14.56
2022-09-23T09:26:09.091Z,14.59
2022-09-23T09:27:09.078Z,14.61
2022-09-23T09:28:09.037Z,14.66
2022-09-23T09:29:23.688Z,14.67
2022-09-23T09:30:10.084Z,14.71
2022-09-23T09:31:09.058Z,14.79
2022-09-23T09:32:08.989Z,14.79
2022-09-23T09:33:08.992Z,14.83
2022-09-23T09:34:08.995Z,14.86
2022-09-23T09:35:08.982Z,14.86
2022-09-23T09:36:09.265Z,14.87
2022-09-23T09:37:08.939Z,14.91
2022-09-23T09:38:08.899Z,14.95
2022-09-23T09:39:08.977Z,15.00
2022-09-23T09:40:08.942Z,15.04
2022-09-23T09:41:08.879Z,15.04
2022-09-23T09:42:08.880Z,15.03
2022-09-23T09:43:08.855Z,15.04
2022-09-23T09:44:08.861Z,15.07
2022-09-23T09:45:08.907Z,15.11
2022-09-23T09:46:08.817Z,15.15
2022-09-23T09:47:08.802Z,15.15
2022-09-23T09:48:08.796Z,15.15
2022-09-23T09:49:08.798Z,15.18
2022-09-23T09:50:08.747Z,15.18
2022-09-23T09:51:08.762Z,15.19
2022-09-23T09:52:08.736Z,15.20
2022-09-23T09:53:08.654Z,15.19
2022-09-23T09:54:08.653Z,15.23
2022-09-23T09:55:08.668Z,15.27
2022-09-23T09:56:08.682Z,15.20
2022-09-23T09:57:08.610Z,15.18
2022-09-23T09:58:08.610Z,15.16
2022-09-23T09:59:08.618Z,15.12
2022-09-23T10:00:08.738Z,15.12
2022-09-23T10:01:08.635Z,15.15
2022-09-23T10:02:08.609Z,15.18
2022-09-23T10:03:08.558Z,15.22
2022-09-23T10:04:08.630Z,15.25
2022-09-23T10:05:08.607Z,15.28
2022-09-23T10:06:08.787Z,15.31
2022-09-23T10:07:08.507Z,15.33
2022-09-23T10:08:08.464Z,15.41
2022-09-23T10:09:08.467Z,15.49
2022-09-23T10:10:22.258Z,15.56
2022-09-23T10:11:09.427Z,15.66
2022-09-23T10:12:08.411Z,15.67
2022-09-23T10:13:08.413Z,15.70
2022-09-23T10:14:08.455Z,15.76
2022-09-23T10:15:08.384Z,15.76
2022-09-23T10:16:08.381Z,15.73
2022-09-23T10:17:08.352Z,15.68
2022-09-23T10:18:08.421Z,15.70
2022-09-23T10:19:08.331Z,15.74
2022-09-23T10:20:08.330Z,15.84
2022-09-23T10:21:08.313Z,15.88
2022-09-23T10:22:08.288Z,15.86
2022-09-23T10:23:08.293Z,15.91
2022-09-23T10:24:08.307Z,15.98
2022-09-23T10:25:08.273Z,16.07
2022-09-23T10:26:08.267Z,16.16
2022-09-23T10:27:08.247Z,16.18
2022-09-23T10:28:08.371Z,16.18
2022-09-23T10:29:08.244Z,16.23
2022-09-23T10:30:08.238Z,16.23
2022-09-23T10:31:08.537Z,16.17
2022-09-23T10:32:08.207Z,16.08
2022-09-23T10:33:08.173Z,16.08
2022-09-23T10:34:08.132Z,16.07
2022-09-23T10:35:08.187Z,16.01
2022-09-23T10:36:08.104Z,16.07
2022-09-23T10:37:08.087Z,16.14
2022-09-23T10:38:08.108Z,16.22
2022-09-23T10:39:08.199Z,16.23
2022-09-23T10:40:08.112Z,16.23
2022-09-23T10:42:09.120Z,16.36
2022-09-23T10:43:08.064Z,16.34
2022-09-23T10:44:08.103Z,16.37
2022-09-23T10:45:08.007Z,16.42
2022-09-23T10:46:08.110Z,16.45
2022-09-23T10:47:07.963Z,16.47
2022-09-23T10:48:07.958Z,16.41
2022-09-23T10:49:07.946Z,16.36
2022-09-23T10:50:07.942Z,16.40
2022-09-23T10:51:07.937Z,16.42
2022-09-23T10:52:07.942Z,16.47
2022-09-23T10:53:07.895Z,16.54
2022-09-23T10:54:07.964Z,16.59
2022-09-23T10:55:07.938Z,16.63
2022-09-23T10:56:07.889Z,16.66
2022-09-23T10:57:07.887Z,16.70
2022-09-23T10:58:07.843Z,16.70
2022-09-23T10:59:07.809Z,16.73
2022-09-23T11:00:07.845Z,16.75
2022-09-23T11:01:14.868Z,16.73
2022-09-23T11:02:07.789Z,16.78
2022-09-23T11:03:07.775Z,16.78
2022-09-23T11:04:08.027Z,16.67
2022-09-23T11:05:07.917Z,16.60
2022-09-23T11:06:07.763Z,16.60
2022-09-23T11:07:07.712Z,16.67
2022-09-23T11:08:07.718Z,16.70
2022-09-23T11:09:07.701Z,16.70
2022-09-23T11:10:18.470Z,16.73
2022-09-23T11:11:08.652Z,16.72
2022-09-23T11:12:07.649Z,16.69
2022-09-23T11:13:07.628Z,16.62
2022-09-23T11:14:07.928Z,16.52
2022-09-23T11:15:07.632Z,16.51
2022-09-23T11:16:07.625Z,16.55
2022-09-23T11:17:07.745Z,16.62
2022-09-23T11:18:07.587Z,16.62
2022-09-23T11:19:07.588Z,16.65
2022-09-23T11:20:07.562Z,16.66
2022-09-23T11:21:07.525Z,16.65
2022-09-23T11:22:07.527Z,16.65
2022-09-23T11:23:07.509Z,16.69
2022-09-23T11:24:07.574Z,16.72
2022-09-23T11:25:07.495Z,16.73
2022-09-23T11:26:07.472Z,16.72
2022-09-23T11:27:07.470Z,16.70
2022-09-23T11:28:07.439Z,16.70
2022-09-23T11:29:07.438Z,16.72
2022-09-23T11:30:07.440Z,16.78
2022-09-23T11:31:07.455Z,16.75
2022-09-23T11:32:07.417Z,16.80
2022-09-23T11:33:07.473Z,16.85
2022-09-23T11:34:07.481Z,16.91
2022-09-23T11:35:07.390Z,16.90
2022-09-23T11:36:07.343Z,16.87
2022-09-23T11:37:07.334Z,16.82
2022-09-23T11:38:07.316Z,16.82
2022-09-23T11:39:07.322Z,16.85
2022-09-23T11:40:07.375Z,16.84
2022-09-23T11:41:07.421Z,16.81
2022-09-23T11:42:07.314Z,16.75
2022-09-23T11:43:07.934Z,16.67
2022-09-23T11:44:07.330Z,16.63
2022-09-23T11:45:07.295Z,16.60
2022-09-23T11:46:07.308Z,16.54
2022-09-23T11:47:07.215Z,16.52
2022-09-23T11:48:07.237Z,16.54
2022-09-23T11:49:07.183Z,16.57
2022-09-23T11:50:07.206Z,16.62
2022-09-23T11:51:07.152Z,16.57
2022-09-23T11:52:07.135Z,16.55
2022-09-23T11:53:07.136Z,16.55
2022-09-23T11:54:07.405Z,16.57
2022-09-23T11:55:17.970Z,16.55
2022-09-23T11:56:08.098Z,16.63
2022-09-23T11:57:07.204Z,16.67
2022-09-23T11:58:16.116Z,16.72
2022-09-23T11:59:08.334Z,16.65
2022-09-23T12:00:07.047Z,16.60
2022-09-23T12:01:07.576Z,16.60
2022-09-23T12:02:17.442Z,16.59
2022-09-23T12:03:08.209Z,16.65
2022-09-23T12:04:16.758Z,16.66
2022-09-23T12:05:08.105Z,16.67
2022-09-23T12:06:06.966Z,16.73
2022-09-23T12:07:06.940Z,16.81
2022-09-23T12:08:06.946Z,16.84
2022-09-23T12:09:07.611Z,16.85
2022-09-23T12:10:06.926Z,16.87
2022-09-23T12:11:06.925Z,16.90
2022-09-23T12:12:07.266Z,16.99
2022-09-23T12:13:07.168Z,17.00
2022-09-23T12:14:07.052Z,17.02
2022-09-23T12:15:06.835Z,16.99
2022-09-23T12:16:06.916Z,17.02
2022-09-23T12:17:07.831Z,17.02
2022-09-23T12:18:06.817Z,17.05
2022-09-23T12:19:06.846Z,17.09
2022-09-23T12:20:06.795Z,17.14
2022-09-23T12:21:06.805Z,17.10
2022-09-23T12:22:06.777Z,17.05
2022-09-23T12:23:06.745Z,17.06
2022-09-23T12:24:06.873Z,17.07
2022-09-23T12:25:06.739Z,17.09
2022-09-23T12:26:06.757Z,17.10
2022-09-23T12:27:06.691Z,17.09
2022-09-23T12:28:07.009Z,17.09
2022-09-23T12:29:06.668Z,17.07
2022-09-23T12:30:06.659Z,17.03
2022-09-23T12:31:06.705Z,16.98
2022-09-23T12:32:06.625Z,16.95
2022-09-23T12:33:06.618Z,16.96
2022-09-23T12:34:06.630Z,16.96
2022-09-23T12:35:06.625Z,16.99
2022-09-23T12:36:07.028Z,16.99
2022-09-23T12:37:06.564Z,16.98
2022-09-23T12:38:06.547Z,16.90
2022-09-23T12:39:06.578Z,16.91
2022-09-23T12:40:06.537Z,16.95
2022-09-23T12:41:06.516Z,16.96
2022-09-23T12:42:06.500Z,16.98
2022-09-23T12:43:06.479Z,17.00
2022-09-23T12:44:06.652Z,16.95
2022-09-23T12:45:06.458Z,16.90
2022-09-23T12:46:06.505Z,16.90
2022-09-23T12:47:06.435Z,16.88
2022-09-23T12:48:06.422Z,16.84
2022-09-23T12:49:06.407Z,16.85
2022-09-23T12:50:06.394Z,16.87
2022-09-23T12:51:06.390Z,16.92
2022-09-23T12:52:06.365Z,17.00
2022-09-23T12:53:06.367Z,16.98
2022-09-23T12:54:06.378Z,17.00
2022-09-23T12:55:06.328Z,17.05
2022-09-23T12:56:06.319Z,17.05
2022-09-23T12:57:06.313Z,17.07
2022-09-23T12:58:06.289Z,17.10
2022-09-23T12:59:06.287Z,17.10
2022-09-23T13:00:06.269Z,17.12
2022-09-23T13:01:06.373Z,17.12
2022-09-23T13:02:06.289Z,17.17
2022-09-23T13:03:06.229Z,17.15
2022-09-23T13:04:06.258Z,17.17
2022-09-23T13:05:06.198Z,17.15
2022-09-23T13:06:06.197Z,17.14
2022-09-23T13:07:06.180Z,17.07
2022-09-23T13:08:06.190Z,17.06